Time;durP1;ratioP1;P1;durP2;ratioP2;P2;SDS_P1;SDS_P2;PMS_P1;PMS_P2;Temp;Humidity;BMP_temperature;BMP_pressure;BME280_temperature;BME280_humidity;BME280_pressure;Samples;Min_cycle;Max_cycle;Signal;HPM_P1;HPM_P2
2022/12/28 00:00:06;;;;;;;0.28;0.28;;;;;;;;;;5041608;28;20037;-85
2022/12/28 00:02:34;;;;;;;0.20;0.10;;;;;;;;;;5018140;28;20126;-87
2022/12/28 00:05:00;;;;;;;0.20;0.20;;;;;;;;;;5022459;28;20507;-84
2022/12/28 00:07:26;;;;;;;0.22;0.22;;;;;;;;;;5020905;28;20032;-86
2022/12/28 00:09:52;;;;;;;0.20;0.10;;;;;;;;;;5021195;28;20064;-86
2022/12/28 00:12:18;;;;;;;0.20;0.10;;;;;;;;;;5024025;28;20090;-85
2022/12/28 00:14:44;;;;;;;0.20;0.10;;;;;;;;;;5039507;28;20051;-84
2022/12/28 00:17:13;;;;;;;0.20;0.13;;;;;;;;;;5033212;28;20127;-87
2022/12/28 00:19:39;;;;;;;1.00;0.80;;;;;;;;;;5032760;28;20055;-85
2022/12/28 00:22:08;;;;;;;0.20;0.10;;;;;;;;;;5036126;28;20123;-84
2022/12/28 00:24:34;;;;;;;0.20;0.10;;;;;;;;;;5017687;28;20041;-86
2022/12/28 00:27:02;;;;;;;0.20;0.20;;;;;;;;;;5022172;28;20564;-83
2022/12/28 00:29:28;;;;;;;0.20;0.10;;;;;;;;;;5038102;28;20033;-89
2022/12/28 00:31:54;;;;;;;0.20;0.10;;;;;;;;;;5041038;28;20565;-84
2022/12/28 00:34:20;;;;;;;0.20;0.10;;;;;;;;;;5016659;28;20048;-85
2022/12/28 00:36:49;;;;;;;0.20;0.10;;;;;;;;;;5049280;28;20047;-87
2022/12/28 00:39:22;;;;;;;0.20;0.10;;;;;;;;;;5019025;28;20045;-86
2022/12/28 00:41:48;;;;;;;0.20;0.10;;;;;;;;;;5035047;28;20138;-88
2022/12/28 00:44:17;;;;;;;0.20;0.10;;;;;;;;;;5019469;28;20068;-86
2022/12/28 00:46:43;;;;;;;0.20;0.10;;;;;;;;;;5038318;28;20658;-85
2022/12/28 00:49:12;;;;;;;0.30;0.30;;;;;;;;;;5035304;28;20051;-87
2022/12/28 00:51:41;;;;;;;0.20;0.10;;;;;;;;;;5031389;28;20047;-87
2022/12/28 00:54:07;;;;;;;0.20;0.10;;;;;;;;;;5022034;28;20041;-86
2022/12/28 00:56:41;;;;;;;0.20;0.20;;;;;;;;;;5022747;28;20044;-88
2022/12/28 00:59:08;;;;;;;0.20;0.10;;;;;;;;;;5051756;28;20491;-86
2022/12/28 01:01:34;;;;;;;0.65;0.65;;;;;;;;;;5021570;28;20052;-87
2022/12/28 01:04:00;;;;;;;0.20;0.10;;;;;;;;;;5019702;28;20037;-86
2022/12/28 01:06:27;;;;;;;0.40;0.40;;;;;;;;;;5037799;28;20032;-86
2022/12/28 01:08:55;;;;;;;0.20;0.10;;;;;;;;;;5020246;28;20040;-87
2022/12/28 01:11:25;;;;;;;0.20;0.10;;;;;;;;;;5050324;28;20036;-86
2022/12/28 01:13:52;;;;;;;0.20;0.10;;;;;;;;;;5038258;28;20135;-86
2022/12/28 01:16:34;;;;;;;0.20;0.10;;;;;;;;;;5017329;28;20040;-86
2022/12/28 01:19:19;;;;;;;0.20;0.10;;;;;;;;;;5034586;28;20502;-87
2022/12/28 01:21:47;;;;;;;0.20;0.10;;;;;;;;;;5034171;28;20045;-86
2022/12/28 01:24:13;;;;;;;0.20;0.10;;;;;;;;;;5033656;28;20127;-87
2022/12/28 01:26:39;;;;;;;0.20;0.10;;;;;;;;;;5017377;28;20037;-85
2022/12/28 01:29:05;;;;;;;0.20;0.10;;;;;;;;;;5019566;28;20087;-85
2022/12/28 01:31:31;;;;;;;0.20;0.10;;;;;;;;;;5017677;28;20029;-88
2022/12/28 01:33:57;;;;;;;0.20;0.10;;;;;;;;;;5016555;28;20045;-89
2022/12/28 01:36:26;;;;;;;0.20;0.10;;;;;;;;;;5030331;28;20483;-87
2022/12/28 01:38:56;;;;;;;0.20;0.10;;;;;;;;;;5029494;28;20119;-82
2022/12/28 01:41:28;;;;;;;0.20;0.10;;;;;;;;;;5034680;28;20044;-89
2022/12/28 01:44:03;;;;;;;0.50;0.50;;;;;;;;;;5031981;28;20071;-87
2022/12/28 01:46:48;;;;;;;0.20;0.10;;;;;;;;;;5021288;28;20036;-89
2022/12/28 01:49:32;;;;;;;0.20;0.10;;;;;;;;;;5038670;28;20037;-83
2022/12/28 01:52:16;;;;;;;0.20;0.10;;;;;;;;;;5020768;28;20703;-85
2022/12/28 01:54:58;;;;;;;0.20;0.20;;;;;;;;;;5021357;28;20488;-91
2022/12/28 01:57:26;;;;;;;0.20;0.10;;;;;;;;;;5039616;28;20404;-84
2022/12/28 01:59:56;;;;;;;0.20;0.10;;;;;;;;;;5035289;28;20045;-85
2022/12/28 02:02:22;;;;;;;0.20;0.10;;;;;;;;;;5048240;28;20037;-87
2022/12/28 02:04:49;;;;;;;0.20;0.10;;;;;;;;;;5051391;28;20041;-85
2022/12/28 02:07:21;;;;;;;0.20;0.10;;;;;;;;;;5033234;28;20036;-86
2022/12/28 02:09:47;;;;;;;0.20;0.10;;;;;;;;;;5016577;28;20033;-92
2022/12/28 02:12:14;;;;;;;0.20;0.10;;;;;;;;;;5038189;28;20041;-86
2022/12/28 02:14:41;;;;;;;0.20;0.10;;;;;;;;;;5022126;28;20408;-85
2022/12/28 02:17:08;;;;;;;0.20;0.10;;;;;;;;;;5032246;28;20526;-87
2022/12/28 02:19:43;;;;;;;0.20;0.10;;;;;;;;;;5033889;28;20044;-86
2022/12/28 02:22:21;;;;;;;0.20;0.10;;;;;;;;;;5031415;28;20045;-87
2022/12/28 02:24:58;;;;;;;0.35;0.17;;;;;;;;;;5033099;28;20041;-87
2022/12/28 02:27:36;;;;;;;0.20;0.10;;;;;;;;;;5016471;28;20049;-85
2022/12/28 02:30:02;;;;;;;0.20;0.10;;;;;;;;;;5035083;28;20955;-86
2022/12/28 02:32:34;;;;;;;0.20;0.10;;;;;;;;;;5031728;28;20046;-86
2022/12/28 02:35:10;;;;;;;0.20;0.15;;;;;;;;;;5020744;28;20081;-89
2022/12/28 02:37:46;;;;;;;0.20;0.10;;;;;;;;;;5049325;28;20037;-91
2022/12/28 02:40:18;;;;;;;0.30;0.30;;;;;;;;;;5022647;28;20041;-84
2022/12/28 02:42:44;;;;;;;0.30;0.17;;;;;;;;;;5033689;28;20040;-88
2022/12/28 02:51:28;;;;;;;0.20;0.10;;;;;;;;;;5000229;28;20045;-89
2022/12/28 02:54:03;;;;;;;0.20;0.10;;;;;;;;;;4986586;28;20103;-87
2022/12/28 02:56:42;;;;;;;0.20;0.10;;;;;;;;;;5022773;28;20049;-87
2022/12/28 02:59:30;;;;;;;0.20;0.10;;;;;;;;;;5020998;28;20040;-86
2022/12/28 03:02:02;;;;;;;0.20;0.10;;;;;;;;;;5021488;28;20472;-89
2022/12/28 03:04:49;;;;;;;0.20;0.10;;;;;;;;;;5035147;28;20411;-87
2022/12/28 03:10:14;;;;;;;0.20;0.10;;;;;;;;;;5016704;28;20118;-88
2022/12/28 03:13:41;;;;;;;0.20;0.20;;;;;;;;;;5029573;28;20906;-85
2022/12/28 03:33:15;;;;;;;0.20;0.10;;;;;;;;;;5037387;28;20455;-85
2022/12/28 03:35:47;;;;;;;0.20;0.10;;;;;;;;;;5024242;28;20053;-89
2022/12/28 03:38:34;;;;;;;0.20;0.10;;;;;;;;;;5038307;28;20399;-88
2022/12/28 03:41:22;;;;;;;0.22;0.22;;;;;;;;;;5025067;28;20040;-88
2022/12/28 03:44:08;;;;;;;0.20;0.10;;;;;;;;;;5017502;28;20394;-89
2022/12/28 03:46:51;;;;;;;0.20;0.10;;;;;;;;;;5039275;28;20124;-88
2022/12/28 03:49:39;;;;;;;0.20;0.10;;;;;;;;;;5034225;28;20033;-89
2022/12/28 03:52:08;;;;;;;0.20;0.10;;;;;;;;;;5036820;28;20037;-89
2022/12/28 03:54:34;;;;;;;0.20;0.20;;;;;;;;;;5035205;28;20397;-86
2022/12/28 03:57:03;;;;;;;0.20;0.13;;;;;;;;;;5018744;28;20294;-87
2022/12/28 03:59:29;;;;;;;0.20;0.10;;;;;;;;;;5039109;28;20127;-87
2022/12/28 04:02:01;;;;;;;0.20;0.10;;;;;;;;;;5023762;28;20037;-89
2022/12/28 04:04:40;;;;;;;0.22;0.15;;;;;;;;;;5023221;28;20456;-87
2022/12/28 04:07:10;;;;;;;0.20;0.10;;;;;;;;;;5033618;28;20116;-89
2022/12/28 04:09:48;;;;;;;0.20;0.10;;;;;;;;;;5022751;28;20090;-86
2022/12/28 04:12:14;;;;;;;0.20;0.10;;;;;;;;;;5042564;28;20087;-87
2022/12/28 04:14:58;;;;;;;0.22;0.17;;;;;;;;;;5036335;28;20139;-90
2022/12/28 04:17:30;;;;;;;0.20;0.10;;;;;;;;;;5026461;28;20037;-91
2022/12/28 04:19:56;;;;;;;0.20;0.10;;;;;;;;;;5042573;28;20783;-89
2022/12/28 04:22:22;;;;;;;0.20;0.10;;;;;;;;;;5051736;28;20037;-89
2022/12/28 04:24:54;;;;;;;0.20;0.10;;;;;;;;;;5038520;28;20041;-88
2022/12/28 04:27:29;;;;;;;0.20;0.10;;;;;;;;;;5026860;28;20033;-87
2022/12/28 04:29:56;;;;;;;0.20;0.20;;;;;;;;;;5018908;28;20044;-87
2022/12/28 04:32:22;;;;;;;0.20;0.10;;;;;;;;;;5069262;22;20060;-84
2022/12/28 04:34:48;;;;;;;0.20;0.10;;;;;;;;;;5060190;28;20040;-87
2022/12/28 04:37:14;;;;;;;0.20;0.10;;;;;;;;;;5042129;28;20036;-88
2022/12/28 04:39:40;;;;;;;0.20;0.10;;;;;;;;;;5061492;28;20040;-86
2022/12/28 04:42:06;;;;;;;0.20;0.10;;;;;;;;;;5068993;28;20040;-85
2022/12/28 04:44:32;;;;;;;0.35;0.17;;;;;;;;;;5052761;28;20139;-84
2022/12/28 04:46:58;;;;;;;0.20;0.10;;;;;;;;;;5076144;28;20061;-84
2022/12/28 04:49:24;;;;;;;0.20;0.10;;;;;;;;;;5059472;28;20036;-84
2022/12/28 04:51:50;;;;;;;0.20;0.10;;;;;;;;;;5081629;28;20497;-83
2022/12/28 04:54:16;;;;;;;0.20;0.10;;;;;;;;;;5073131;28;20055;-86
2022/12/28 04:56:42;;;;;;;0.20;0.10;;;;;;;;;;5061527;28;20039;-86
2022/12/28 04:59:08;;;;;;;0.20;0.20;;;;;;;;;;5077168;28;20094;-84
2022/12/28 05:01:35;;;;;;;0.20;0.10;;;;;;;;;;5057806;28;20044;-83
2022/12/28 05:04:00;;;;;;;0.20;0.10;;;;;;;;;;5061763;28;20039;-85
2022/12/28 05:06:28;;;;;;;0.20;0.10;;;;;;;;;;5079256;28;20119;-83
2022/12/28 05:08:54;;;;;;;0.20;0.10;;;;;;;;;;5080559;28;20119;-84
2022/12/28 05:11:22;;;;;;;0.20;0.10;;;;;;;;;;5069583;28;20039;-85
2022/12/28 05:13:48;;;;;;;0.20;0.13;;;;;;;;;;5074973;28;20036;-86
2022/12/28 05:16:15;;;;;;;0.20;0.10;;;;;;;;;;5060623;28;20043;-85
2022/12/28 05:18:41;;;;;;;0.20;0.10;;;;;;;;;;5069331;28;20045;-85
2022/12/28 05:21:09;;;;;;;0.20;0.20;;;;;;;;;;5061384;28;20055;-86
2022/12/28 05:23:36;;;;;;;0.20;0.10;;;;;;;;;;5076463;28;20121;-84
2022/12/28 05:26:03;;;;;;;1.55;0.30;;;;;;;;;;5071422;28;20070;-87
2022/12/28 05:28:29;;;;;;;0.20;0.10;;;;;;;;;;5058517;28;20108;-87
2022/12/28 05:30:58;;;;;;;0.20;0.10;;;;;;;;;;5090654;28;20040;-87
2022/12/28 05:33:24;;;;;;;0.28;0.17;;;;;;;;;;5057645;28;20073;-83
2022/12/28 05:35:50;;;;;;;0.20;0.10;;;;;;;;;;5072967;28;20581;-85
2022/12/28 05:38:16;;;;;;;0.20;0.10;;;;;;;;;;5080526;28;20032;-83
2022/12/28 05:40:42;;;;;;;0.20;0.10;;;;;;;;;;5055589;28;20289;-87
2022/12/28 05:43:08;;;;;;;0.20;0.10;;;;;;;;;;5072698;28;20039;-85
2022/12/28 05:45:34;;;;;;;0.20;0.10;;;;;;;;;;5072781;28;20039;-83
2022/12/28 05:48:01;;;;;;;0.20;0.10;;;;;;;;;;5070389;28;20090;-86
2022/12/28 05:50:27;;;;;;;0.20;0.20;;;;;;;;;;5060258;28;20502;-84
2022/12/28 05:52:53;;;;;;;0.20;0.10;;;;;;;;;;5080756;28;20040;-85
2022/12/28 05:55:19;;;;;;;0.20;0.10;;;;;;;;;;5079561;28;20388;-85
2022/12/28 05:57:45;;;;;;;0.28;0.28;;;;;;;;;;5076911;28;20085;-86
2022/12/28 06:00:11;;;;;;;0.20;0.10;;;;;;;;;;5072570;28;20052;-86
2022/12/28 06:02:37;;;;;;;0.20;0.10;;;;;;;;;;5064198;28;20563;-87
2022/12/28 06:05:03;;;;;;;1.20;0.90;;;;;;;;;;5077107;28;20040;-85
2022/12/28 06:07:29;;;;;;;0.20;0.10;;;;;;;;;;5064309;28;20035;-84
2022/12/28 06:09:55;;;;;;;0.20;0.10;;;;;;;;;;5080737;28;20543;-85
2022/12/28 06:12:21;;;;;;;0.80;0.80;;;;;;;;;;5056287;28;20040;-85
2022/12/28 06:14:48;;;;;;;0.20;0.20;;;;;;;;;;5077649;28;20093;-85
2022/12/28 06:17:14;;;;;;;0.20;0.10;;;;;;;;;;5075767;28;20044;-85
2022/12/28 06:19:40;;;;;;;0.20;0.10;;;;;;;;;;5060274;28;20040;-83
2022/12/28 06:22:06;;;;;;;0.20;0.10;;;;;;;;;;5073807;28;20573;-87
2022/12/28 06:24:32;;;;;;;0.30;0.20;;;;;;;;;;5079383;28;20319;-86
2022/12/28 06:26:58;;;;;;;0.20;0.10;;;;;;;;;;5078429;28;20046;-86
2022/12/28 06:29:24;;;;;;;0.20;0.10;;;;;;;;;;5082372;28;20032;-88
2022/12/28 06:31:52;;;;;;;0.20;0.10;;;;;;;;;;5057117;28;20054;-85
2022/12/28 06:34:18;;;;;;;0.20;0.10;;;;;;;;;;5079081;28;20043;-84
2022/12/28 06:36:45;;;;;;;0.20;0.10;;;;;;;;;;5076604;28;20040;-88
2022/12/28 06:39:12;;;;;;;0.20;0.10;;;;;;;;;;5062306;28;20178;-86
2022/12/28 06:41:39;;;;;;;0.20;0.10;;;;;;;;;;5080769;28;20498;-83
2022/12/28 06:44:09;;;;;;;0.30;0.30;;;;;;;;;;5079398;28;20410;-85
2022/12/28 06:46:35;;;;;;;0.20;0.10;;;;;;;;;;5057048;28;20386;-85
2022/12/28 06:49:01;;;;;;;0.20;0.10;;;;;;;;;;5062273;28;20036;-85
2022/12/28 06:51:29;;;;;;;0.20;0.10;;;;;;;;;;5060060;28;20518;-84
2022/12/28 06:53:56;;;;;;;0.20;0.10;;;;;;;;;;5080454;28;20040;-86
2022/12/28 06:56:27;;;;;;;0.20;0.20;;;;;;;;;;5062165;28;20040;-86
2022/12/28 06:58:53;;;;;;;0.20;0.10;;;;;;;;;;5079478;28;20079;-84
2022/12/28 07:01:23;;;;;;;0.20;0.10;;;;;;;;;;5062863;28;20079;-85
2022/12/28 07:03:50;;;;;;;0.20;0.10;;;;;;;;;;5060624;28;20044;-84
2022/12/28 07:06:17;;;;;;;0.25;0.17;;;;;;;;;;5061684;28;20044;-84
2022/12/28 07:08:44;;;;;;;0.20;0.10;;;;;;;;;;5082875;28;20048;-82
2022/12/28 07:11:12;;;;;;;0.65;0.32;;;;;;;;;;5084256;28;20706;-85
2022/12/28 07:13:38;;;;;;;0.20;0.10;;;;;;;;;;5067576;28;20040;-84
2022/12/28 07:16:05;;;;;;;0.20;0.10;;;;;;;;;;5065164;28;20036;-83
2022/12/28 07:18:31;;;;;;;0.20;0.10;;;;;;;;;;5064317;28;20059;-86
2022/12/28 07:21:02;;;;;;;0.20;0.10;;;;;;;;;;5083456;28;20127;-84
2022/12/28 07:23:30;;;;;;;0.20;0.10;;;;;;;;;;5084271;28;20444;-86
2022/12/28 07:25:57;;;;;;;0.20;0.10;;;;;;;;;;5064698;28;20032;-86
2022/12/28 07:28:23;;;;;;;0.20;0.10;;;;;;;;;;5064825;28;20109;-85
2022/12/28 07:30:49;;;;;;;0.30;0.20;;;;;;;;;;5082620;28;20032;-85
2022/12/28 07:33:15;;;;;;;0.20;0.10;;;;;;;;;;5066358;28;20032;-84
2022/12/28 07:35:41;;;;;;;0.20;0.17;;;;;;;;;;5068773;28;20035;-86
2022/12/28 07:38:07;;;;;;;0.20;0.10;;;;;;;;;;5083531;28;20398;-86
2022/12/28 07:40:33;;;;;;;0.20;0.10;;;;;;;;;;5083165;28;20048;-85
2022/12/28 07:42:59;;;;;;;0.20;0.10;;;;;;;;;;5065833;28;20044;-85
2022/12/28 07:45:25;;;;;;;0.20;0.10;;;;;;;;;;5067363;28;20410;-84
2022/12/28 07:47:51;;;;;;;0.20;0.10;;;;;;;;;;5066771;28;20071;-85
2022/12/28 07:50:17;;;;;;;0.25;0.20;;;;;;;;;;5063499;28;20064;-84
2022/12/28 07:52:43;;;;;;;0.47;0.30;;;;;;;;;;5082777;28;20075;-84
2022/12/28 07:55:09;;;;;;;0.20;0.10;;;;;;;;;;5081077;28;20054;-84
2022/12/28 07:57:35;;;;;;;0.55;0.55;;;;;;;;;;5077465;28;20046;-85
2022/12/28 08:00:02;;;;;;;0.57;0.32;;;;;;;;;;5082621;28;20040;-85
2022/12/28 08:02:28;;;;;;;0.20;0.20;;;;;;;;;;5084044;28;20082;-83
2022/12/28 08:04:54;;;;;;;0.20;0.10;;;;;;;;;;5080389;28;20119;-84
2022/12/28 08:07:20;;;;;;;0.20;0.10;;;;;;;;;;5058385;28;20401;-85
2022/12/28 08:09:46;;;;;;;0.20;0.20;;;;;;;;;;5077776;28;20032;-85
2022/12/28 08:12:12;;;;;;;0.20;0.10;;;;;;;;;;5077890;28;20397;-84
2022/12/28 08:14:47;;;;;;;0.20;0.10;;;;;;;;;;5078124;28;20043;-87
2022/12/28 08:17:13;;;;;;;0.20;0.10;;;;;;;;;;5080344;28;20051;-84
2022/12/28 08:19:39;;;;;;;0.20;0.10;;;;;;;;;;5082982;28;20044;-85
2022/12/28 08:22:05;;;;;;;0.20;0.10;;;;;;;;;;5077899;28;20064;-85
2022/12/28 08:24:31;;;;;;;0.20;0.10;;;;;;;;;;5065436;28;20101;-84
2022/12/28 08:26:57;;;;;;;0.20;0.10;;;;;;;;;;5064949;28;20040;-84
2022/12/28 08:29:23;;;;;;;0.30;0.30;;;;;;;;;;5082343;28;20047;-84
2022/12/28 08:31:52;;;;;;;0.20;0.10;;;;;;;;;;5067115;28;20319;-83
2022/12/28 08:34:19;;;;;;;0.45;0.30;;;;;;;;;;5066495;28;20638;-86
2022/12/28 08:36:46;;;;;;;0.20;0.10;;;;;;;;;;5058198;28;20039;-84
2022/12/28 08:39:12;;;;;;;1.35;0.43;;;;;;;;;;5060552;28;20188;-85
2022/12/28 08:41:38;;;;;;;0.20;0.10;;;;;;;;;;5060371;28;20055;-84
2022/12/28 08:44:05;;;;;;;0.20;0.10;;;;;;;;;;5058294;28;20048;-86
2022/12/28 08:46:32;;;;;;;0.20;0.10;;;;;;;;;;5063864;28;20035;-85
2022/12/28 08:48:59;;;;;;;0.20;0.10;;;;;;;;;;5074347;28;20388;-87
2022/12/28 08:51:30;;;;;;;0.45;0.20;;;;;;;;;;5083854;28;20039;-85
2022/12/28 08:53:57;;;;;;;0.20;0.10;;;;;;;;;;5065335;28;20119;-85
2022/12/28 08:56:27;;;;;;;0.20;0.10;;;;;;;;;;5066036;28;20055;-87
2022/12/28 08:58:54;;;;;;;0.30;0.30;;;;;;;;;;5062955;28;20311;-86
2022/12/28 09:01:21;;;;;;;1.75;1.25;;;;;;;;;;5065093;28;20092;-85
2022/12/28 09:03:50;;;;;;;0.22;0.20;;;;;;;;;;5070384;28;20490;-86
2022/12/28 09:06:21;;;;;;;0.20;0.10;;;;;;;;;;5081664;28;20416;-86
2022/12/28 09:08:49;;;;;;;0.20;0.10;;;;;;;;;;5061387;28;20122;-85
2022/12/28 09:11:15;;;;;;;0.20;0.20;;;;;;;;;;5080139;28;20061;-85
2022/12/28 09:13:41;;;;;;;0.20;0.20;;;;;;;;;;5066249;28;20047;-86
2022/12/28 09:16:09;;;;;;;0.20;0.10;;;;;;;;;;5063824;28;20332;-84
2022/12/28 09:18:35;;;;;;;0.20;0.20;;;;;;;;;;5062575;28;20082;-85
2022/12/28 09:21:09;;;;;;;0.20;0.10;;;;;;;;;;5085398;28;20140;-85
2022/12/28 09:23:35;;;;;;;0.35;0.30;;;;;;;;;;5083212;28;20036;-85
2022/12/28 09:26:09;;;;;;;0.20;0.20;;;;;;;;;;5064906;28;20048;-84
2022/12/28 09:28:36;;;;;;;0.20;0.10;;;;;;;;;;5074544;28;20145;-85
2022/12/28 09:31:03;;;;;;;0.20;0.10;;;;;;;;;;5059773;28;20055;-85
2022/12/28 09:36:15;;;;;;;0.20;0.10;;;;;;;;;;5081747;28;20036;-85
2022/12/28 09:38:42;;;;;;;0.20;0.10;;;;;;;;;;5081306;28;20036;-85
2022/12/28 09:41:20;;;;;;;0.20;0.10;;;;;;;;;;5081612;28;20058;-89
2022/12/28 09:43:46;;;;;;;0.20;0.10;;;;;;;;;;5063833;28;21409;-87
2022/12/28 09:46:14;;;;;;;0.20;0.10;;;;;;;;;;5079101;28;20065;-86
2022/12/28 09:48:40;;;;;;;0.20;0.20;;;;;;;;;;5080483;28;20164;-84
2022/12/28 09:51:06;;;;;;;0.20;0.10;;;;;;;;;;5085763;28;20407;-85
2022/12/28 09:53:33;;;;;;;0.20;0.10;;;;;;;;;;5080375;28;20115;-86
2022/12/28 09:56:05;;;;;;;0.20;0.10;;;;;;;;;;5079402;28;20036;-84
2022/12/28 09:58:32;;;;;;;0.28;0.25;;;;;;;;;;5084162;28;20395;-86
2022/12/28 10:01:00;;;;;;;0.20;0.10;;;;;;;;;;5063908;28;20917;-85
2022/12/28 10:03:31;;;;;;;0.20;0.20;;;;;;;;;;5080988;28;20041;-85
2022/12/28 10:05:57;;;;;;;0.20;0.10;;;;;;;;;;5075349;28;20040;-82
2022/12/28 10:08:23;;;;;;;0.20;0.10;;;;;;;;;;5082220;28;20067;-84
2022/12/28 10:10:50;;;;;;;0.20;0.10;;;;;;;;;;5079146;28;20345;-86
2022/12/28 10:13:20;;;;;;;0.20;0.10;;;;;;;;;;5073474;28;20036;-84
2022/12/28 10:15:46;;;;;;;0.20;0.10;;;;;;;;;;5078195;28;20078;-86
2022/12/28 10:18:14;;;;;;;0.20;0.10;;;;;;;;;;5081129;28;20062;-87
2022/12/28 10:20:40;;;;;;;0.20;0.10;;;;;;;;;;5063766;28;20068;-85
2022/12/28 10:23:06;;;;;;;0.20;0.10;;;;;;;;;;5082366;28;20093;-84
2022/12/28 10:25:32;;;;;;;0.20;0.10;;;;;;;;;;5064949;28;20697;-85
2022/12/28 10:28:00;;;;;;;6.22;2.47;;;;;;;;;;5080999;28;20155;-86
2022/12/28 10:30:26;;;;;;;0.35;0.35;;;;;;;;;;5066603;28;20120;-85
2022/12/28 10:33:04;;;;;;;0.20;0.10;;;;;;;;;;5086298;22;20081;-87
2022/12/28 10:35:52;;;;;;;0.20;0.20;;;;;;;;;;5051241;28;20049;-88
2022/12/28 10:42:36;;;;;;;0.20;0.10;;;;;;;;;;5036927;28;20052;-87
2022/12/28 10:44:53;;;;;;;0.50;0.43;;;;;;;;;;5038331;28;20053;-88
2022/12/28 10:47:29;;;;;;;1.02;0.47;;;;;;;;;;5040534;28;20127;-88
2022/12/28 10:50:05;;;;;;;0.20;0.10;;;;;;;;;;5044029;28;20060;-86
2022/12/28 10:52:37;;;;;;;0.20;0.10;;;;;;;;;;5040161;28;20057;-87
2022/12/28 10:55:03;;;;;;;0.20;0.10;;;;;;;;;;5058850;28;20422;-86
2022/12/28 10:57:36;;;;;;;0.20;0.10;;;;;;;;;;5039603;28;20048;-88
2022/12/28 11:00:24;;;;;;;0.20;0.10;;;;;;;;;;5060483;28;20048;-88
2022/12/28 11:02:56;;;;;;;0.20;0.10;;;;;;;;;;5027370;28;20037;-88
2022/12/28 11:05:31;;;;;;;0.20;0.10;;;;;;;;;;5046960;28;20044;-90
2022/12/28 11:08:15;;;;;;;0.20;0.10;;;;;;;;;;5046763;28;20230;-89
2022/12/28 11:10:47;;;;;;;0.20;0.10;;;;;;;;;;5031187;28;20504;-86
2022/12/28 11:13:21;;;;;;;0.20;0.10;;;;;;;;;;5031481;28;20033;-87
2022/12/28 11:15:47;;;;;;;0.20;0.17;;;;;;;;;;5048136;28;20045;-88
2022/12/28 11:18:35;;;;;;;0.20;0.10;;;;;;;;;;5049078;28;20089;-86
2022/12/28 11:21:13;;;;;;;0.20;0.10;;;;;;;;;;5025562;28;20037;-90
2022/12/28 11:24:04;;;;;;;0.20;0.10;;;;;;;;;;5040609;28;20045;-87
2022/12/28 11:26:32;;;;;;;0.20;0.10;;;;;;;;;;5033342;28;21077;-88
2022/12/28 11:29:16;;;;;;;0.20;0.10;;;;;;;;;;5039948;28;20049;-86
2022/12/28 11:32:01;;;;;;;0.20;0.10;;;;;;;;;;5053780;28;20410;-86
2022/12/28 11:37:32;;;;;;;0.20;0.20;;;;;;;;;;5033437;28;20044;-90
2022/12/28 11:40:10;;;;;;;0.20;0.20;;;;;;;;;;5040295;28;20095;-88
2022/12/28 11:42:47;;;;;;;0.20;0.10;;;;;;;;;;5059079;28;20430;-88
2022/12/28 11:45:14;;;;;;;0.20;0.10;;;;;;;;;;5044669;28;20037;-86
2022/12/28 11:48:00;;;;;;;;;;;;;;;;;;;;;
2022/12/28 11:50:41;;;;;;;0.20;0.10;;;;;;;;;;5041948;28;20049;-87
2022/12/28 11:53:42;;;;;;;0.20;0.10;;;;;;;;;;5037638;28;20091;-90
2022/12/28 11:56:21;;;;;;;0.20;0.10;;;;;;;;;;5028367;28;20160;-85
2022/12/28 11:59:02;;;;;;;0.20;0.10;;;;;;;;;;5026716;28;20240;-88
2022/12/28 12:01:39;;;;;;;0.20;0.10;;;;;;;;;;5037706;28;20041;-88
2022/12/28 12:04:26;;;;;;;0.20;0.10;;;;;;;;;;5052337;28;20056;-87
2022/12/28 12:07:02;;;;;;;0.20;0.10;;;;;;;;;;5023224;28;20518;-88
2022/12/28 12:09:42;;;;;;;0.20;0.10;;;;;;;;;;5040418;28;21290;-86
2022/12/28 12:12:33;;;;;;;0.20;0.10;;;;;;;;;;5024780;28;20042;-87
2022/12/28 12:15:09;;;;;;;0.20;0.10;;;;;;;;;;5041746;28;20099;-87
2022/12/28 12:17:57;;;;;;;0.20;0.20;;;;;;;;;;5041736;28;20124;-87
2022/12/28 12:20:42;;;;;;;0.20;0.10;;;;;;;;;;5027499;28;20344;-87
2022/12/28 12:23:45;;;;;;;0.20;0.10;;;;;;;;;;5039238;28;20044;-88
2022/12/28 12:26:30;;;;;;;1.17;0.30;;;;;;;;;;5014410;28;20056;-87
2022/12/28 12:29:06;;;;;;;0.20;0.10;;;;;;;;;;5036366;28;20036;-88
2022/12/28 12:32:02;;;;;;;0.20;0.10;;;;;;;;;;5054801;28;20504;-90
2022/12/28 12:34:48;;;;;;;0.75;0.30;;;;;;;;;;5036768;28;20064;-86
2022/12/28 12:37:35;;;;;;;0.20;0.10;;;;;;;;;;5042296;28;20044;-90
2022/12/28 12:40:20;;;;;;;0.20;0.10;;;;;;;;;;5038318;28;20388;-86
2022/12/28 12:46:26;;;;;;;0.20;0.10;;;;;;;;;;4960061;28;20687;-87
2022/12/28 12:49:10;;;;;;;0.30;0.30;;;;;;;;;;5034582;28;20182;-88
2022/12/28 12:52:10;;;;;;;0.20;0.10;;;;;;;;;;5037015;28;20084;-86
2022/12/28 12:54:56;;;;;;;0.20;0.10;;;;;;;;;;5036948;28;20041;-89
2022/12/28 12:58:01;;;;;;;0.20;0.10;;;;;;;;;;5040222;28;20029;-86
2022/12/28 13:00:51;;;;;;;0.20;0.10;;;;;;;;;;4983890;28;20026;-87
2022/12/28 13:03:27;;;;;;;0.20;0.10;;;;;;;;;;5069054;22;20048;-87
2022/12/28 13:06:13;;;;;;;0.20;0.10;;;;;;;;;;5040856;28;20067;-88
2022/12/28 13:08:42;;;;;;;0.20;0.15;;;;;;;;;;5043370;28;20040;-86
2022/12/28 13:11:14;;;;;;;0.47;0.30;;;;;;;;;;5041110;28;20139;-89
2022/12/28 13:13:43;;;;;;;;;;;;;;;;;;5026485;28;20037;-88
2022/12/28 13:16:11;;;;;;;0.20;0.10;;;;;;;;;;5036826;22;19946;-83
2022/12/28 13:18:37;;;;;;;0.20;0.10;;;;;;;;;;5040872;28;20032;-87
2022/12/28 13:21:04;;;;;;;0.20;0.10;;;;;;;;;;5038834;28;20037;-85
2022/12/28 13:23:31;;;;;;;0.20;0.10;;;;;;;;;;5052843;28;20570;-85
2022/12/28 13:25:59;;;;;;;0.20;0.10;;;;;;;;;;5055487;28;20044;-86
2022/12/28 13:28:30;;;;;;;0.20;0.10;;;;;;;;;;5059398;28;20100;-86
2022/12/28 13:30:59;;;;;;;0.20;0.10;;;;;;;;;;5041372;28;20040;-87
2022/12/28 13:33:26;;;;;;;0.20;0.10;;;;;;;;;;5042018;28;20032;-85
2022/12/28 13:36:03;;;;;;;0.20;0.10;;;;;;;;;;5040572;28;20032;-87
2022/12/28 13:38:29;;;;;;;0.20;0.10;;;;;;;;;;5061726;28;20183;-85
2022/12/28 13:40:56;;;;;;;0.20;0.10;;;;;;;;;;5059491;28;20044;-85
2022/12/28 13:43:35;;;;;;;0.20;0.20;;;;;;;;;;5052924;28;20045;-85
2022/12/28 13:46:07;;;;;;;0.20;0.10;;;;;;;;;;5064273;28;20399;-86
2022/12/28 13:48:39;;;;;;;0.20;0.10;;;;;;;;;;5040868;28;20098;-88
2022/12/28 13:51:09;;;;;;;0.20;0.10;;;;;;;;;;5039514;28;20059;-85
2022/12/28 13:53:35;;;;;;;0.38;0.38;;;;;;;;;;5058825;28;20732;-82
2022/12/28 13:56:06;;;;;;;0.20;0.10;;;;;;;;;;5033846;28;20037;-86
2022/12/28 13:58:35;;;;;;;0.20;0.10;;;;;;;;;;5058797;28;20037;-83
2022/12/28 14:01:02;;;;;;;0.20;0.10;;;;;;;;;;5057584;28;20070;-84
2022/12/28 14:03:31;;;;;;;0.20;0.10;;;;;;;;;;5045773;28;20028;-84
2022/12/28 14:06:00;;;;;;;0.20;0.10;;;;;;;;;;5057991;28;20063;-85
2022/12/28 14:08:27;;;;;;;0.20;0.20;;;;;;;;;;5058117;28;20040;-82
2022/12/28 14:10:54;;;;;;;0.20;0.10;;;;;;;;;;5059443;28;20039;-84
2022/12/28 14:13:23;;;;;;;0.20;0.10;;;;;;;;;;5059502;28;20067;-86
2022/12/28 14:15:50;;;;;;;0.20;0.10;;;;;;;;;;5060695;28;20080;-85
2022/12/28 14:18:21;;;;;;;0.20;0.10;;;;;;;;;;5049952;28;20127;-87
2022/12/28 14:20:56;;;;;;;0.20;0.10;;;;;;;;;;5046730;28;20052;-84
2022/12/28 14:23:36;;;;;;;0.20;0.10;;;;;;;;;;5044712;28;20036;-84
2022/12/28 14:26:03;;;;;;;0.20;0.20;;;;;;;;;;5045486;28;20032;-84
2022/12/28 14:28:44;;;;;;;0.20;0.10;;;;;;;;;;5056764;28;20655;-85
2022/12/28 14:31:42;;;;;;;0.20;0.13;;;;;;;;;;5061588;28;20399;-85
2022/12/28 14:34:19;;;;;;;0.20;0.10;;;;;;;;;;5027819;28;20048;-84
2022/12/28 14:36:52;;;;;;;0.20;0.10;;;;;;;;;;5061399;28;20051;-87
2022/12/28 14:39:24;;;;;;;0.20;0.10;;;;;;;;;;5063500;28;20047;-86
2022/12/28 14:41:50;;;;;;;0.20;0.10;;;;;;;;;;5039997;28;20068;-87
2022/12/28 14:44:23;;;;;;;0.20;0.10;;;;;;;;;;5061828;28;20511;-86
2022/12/28 14:46:53;;;;;;;0.20;0.10;;;;;;;;;;5044020;28;20040;-84
2022/12/28 14:49:28;;;;;;;0.20;0.20;;;;;;;;;;5044731;28;20119;-87
2022/12/28 14:52:07;;;;;;;0.20;0.10;;;;;;;;;;5063183;28;20041;-86
2022/12/28 14:54:52;;;;;;;0.20;0.10;;;;;;;;;;5045062;28;20040;-83
2022/12/28 14:57:37;;;;;;;0.20;0.10;;;;;;;;;;5059702;28;20037;-86
2022/12/28 15:00:20;;;;;;;0.20;0.10;;;;;;;;;;5053651;28;20056;-85
2022/12/28 15:02:47;;;;;;;0.20;0.10;;;;;;;;;;5060157;28;20131;-85
2022/12/28 15:05:35;;;;;;;0.20;0.10;;;;;;;;;;5060476;28;20547;-87
2022/12/28 15:08:03;;;;;;;0.20;0.10;;;;;;;;;;5068474;28;20113;-85
2022/12/28 15:10:32;;;;;;;0.20;0.10;;;;;;;;;;5068737;28;20033;-86
2022/12/28 15:12:59;;;;;;;0.20;0.10;;;;;;;;;;5044329;28;20037;-86
2022/12/28 15:15:27;;;;;;;0.20;0.10;;;;;;;;;;5045461;28;20051;-85
2022/12/28 15:17:59;;;;;;;0.20;0.10;;;;;;;;;;5043122;28;20041;-86
2022/12/28 15:20:34;;;;;;;0.20;0.10;;;;;;;;;;5045455;28;20041;-86
2022/12/28 15:23:00;;;;;;;0.20;0.10;;;;;;;;;;5055273;28;20048;-86
2022/12/28 15:25:39;;;;;;;0.20;0.10;;;;;;;;;;5050321;28;20047;-86
2022/12/28 15:28:25;;;;;;;0.47;0.47;;;;;;;;;;5035443;28;20258;-86
2022/12/28 15:30:51;;;;;;;0.20;0.10;;;;;;;;;;5057394;28;20044;-86
2022/12/28 15:33:21;;;;;;;0.20;0.10;;;;;;;;;;5047452;28;20041;-88
2022/12/28 15:35:47;;;;;;;0.20;0.10;;;;;;;;;;5045035;28;20028;-84
2022/12/28 15:38:13;;;;;;;0.20;0.10;;;;;;;;;;5045664;28;20047;-85
2022/12/28 15:40:42;;;;;;;0.20;0.10;;;;;;;;;;5049129;28;20048;-85
2022/12/28 15:43:08;;;;;;;0.20;0.10;;;;;;;;;;5066368;28;20040;-86
2022/12/28 15:45:34;;;;;;;0.20;0.10;;;;;;;;;;5067627;28;20063;-86